Time;durP1;ratioP1;P1;durP2;ratioP2;P2;SDS_P1;SDS_P2;PMS_P1;PMS_P2;Temp;Humidity;BMP_temperature;BMP_pressure;BME280_temperature;BME280_humidity;BME280_pressure;Samples;Min_cycle;Max_cycle;Signal;HPM_P1;HPM_P2
2022/06/03 00:00:18;;;;;;;9.67;8.77;;;;;;;;;;5031960;28;20433;-64
2022/06/03 00:02:54;;;;;;;9.40;8.50;;;;;;;;;;5032687;28;20457;-66
2022/06/03 00:05:43;;;;;;;10.10;9.10;;;;;;;;;;5031507;28;20887;-64
2022/06/03 00:08:35;;;;;;;8.60;7.87;;;;;;;;;;5031110;28;20409;-65
2022/06/03 00:11:16;;;;;;;10.13;9.27;;;;;;;;;;5030877;28;20429;-63
2022/06/03 00:13:45;;;;;;;10.83;9.53;;;;;;;;;;5031902;28;20497;-65
2022/06/03 00:16:20;;;;;;;9.43;8.03;;;;;;;;;;5033201;28;20414;-68
2022/06/03 00:18:49;;;;;;;9.80;8.97;;;;;;;;;;5031458;28;20453;-65
2022/06/03 00:21:20;;;;;;;8.63;7.73;;;;;;;;;;5029418;28;20450;-68
2022/06/03 00:23:46;;;;;;;9.80;8.30;;;;;;;;;;5029698;28;20452;-65
2022/06/03 00:26:12;;;;;;;9.17;8.37;;;;;;;;;;5029344;28;20871;-65
2022/06/03 00:28:56;;;;;;;9.30;8.50;;;;;;;;;;5028435;28;20191;-65
2022/06/03 00:31:28;;;;;;;9.50;8.60;;;;;;;;;;5058405;22;20492;-65
2022/06/03 00:33:55;;;;;;;9.43;8.63;;;;;;;;;;5051485;28;20408;-65
2022/06/03 00:36:23;;;;;;;10.83;8.70;;;;;;;;;;5052015;28;20394;-65
2022/06/03 00:39:08;;;;;;;12.73;9.23;;;;;;;;;;5050789;28;20465;-65
2022/06/03 00:41:34;;;;;;;9.90;9.03;;;;;;;;;;5050507;28;20425;-67
2022/06/03 00:44:00;;;;;;;10.13;9.10;;;;;;;;;;5049369;28;20416;-67
2022/06/03 00:46:41;;;;;;;10.00;8.97;;;;;;;;;;5049819;28;20424;-65
2022/06/03 00:49:20;;;;;;;10.03;9.23;;;;;;;;;;5047965;28;21444;-65
2022/06/03 00:52:04;;;;;;;9.60;8.67;;;;;;;;;;5049343;28;20429;-64
2022/06/03 00:54:30;;;;;;;10.07;9.30;;;;;;;;;;5049490;28;20792;-67
2022/06/03 00:56:56;;;;;;;10.50;9.70;;;;;;;;;;5049521;28;20489;-66
2022/06/03 00:59:22;;;;;;;9.93;9.13;;;;;;;;;;5048657;28;20451;-68
2022/06/03 01:02:07;;;;;;;9.63;8.80;;;;;;;;;;5049408;28;20572;-67
2022/06/03 01:04:43;;;;;;;10.80;9.90;;;;;;;;;;5051430;28;20694;-64
2022/06/03 01:07:24;;;;;;;10.57;9.63;;;;;;;;;;5060154;28;20909;-65
2022/06/03 01:09:50;;;;;;;11.90;10.70;;;;;;;;;;5053940;28;20420;-64
2022/06/03 01:12:34;;;;;;;10.63;9.70;;;;;;;;;;5053756;28;20759;-66
2022/06/03 01:15:19;;;;;;;10.83;9.70;;;;;;;;;;5051468;28;20432;-64
2022/06/03 01:17:51;;;;;;;13.60;9.90;;;;;;;;;;5052712;28;20449;-63
2022/06/03 01:20:19;;;;;;;10.67;9.80;;;;;;;;;;5052036;28;20517;-66
2022/06/03 01:22:45;;;;;;;11.13;10.13;;;;;;;;;;5053462;28;20408;-68
2022/06/03 01:25:21;;;;;;;11.67;10.57;;;;;;;;;;5053440;28;20401;-65
2022/06/03 01:27:50;;;;;;;10.50;9.60;;;;;;;;;;5053183;28;20450;-65
2022/06/03 01:30:31;;;;;;;10.60;9.50;;;;;;;;;;5052027;28;20984;-64
2022/06/03 01:33:00;;;;;;;11.40;10.40;;;;;;;;;;5053290;28;20401;-62
2022/06/03 01:35:39;;;;;;;10.27;9.30;;;;;;;;;;5050875;28;20439;-63
2022/06/03 01:38:14;;;;;;;10.67;9.73;;;;;;;;;;5052884;28;20453;-65
2022/06/03 01:40:47;;;;;;;10.20;9.40;;;;;;;;;;5053211;28;20417;-65
2022/06/03 01:43:31;;;;;;;10.73;9.73;;;;;;;;;;5053045;28;20398;-64
2022/06/03 01:46:16;;;;;;;9.27;8.33;;;;;;;;;;5052752;28;20508;-66
2022/06/03 01:48:57;;;;;;;11.33;10.33;;;;;;;;;;5051549;28;20405;-65
2022/06/03 01:51:42;;;;;;;10.47;9.60;;;;;;;;;;5052387;28;20429;-66
2022/06/03 01:54:27;;;;;;;11.27;10.20;;;;;;;;;;5052625;28;20445;-65
2022/06/03 01:56:53;;;;;;;10.27;9.47;;;;;;;;;;5052319;28;20756;-65
2022/06/03 01:59:37;;;;;;;10.37;9.50;;;;;;;;;;5051610;28;20451;-66
2022/06/03 02:02:06;;;;;;;10.23;9.40;;;;;;;;;;5033014;28;20402;-65
2022/06/03 02:04:47;;;;;;;10.80;9.80;;;;;;;;;;5031955;28;20449;-65
2022/06/03 02:07:31;;;;;;;11.30;10.10;;;;;;;;;;5032181;28;20425;-65
2022/06/03 02:09:57;;;;;;;11.13;10.03;;;;;;;;;;5032002;28;20842;-66
2022/06/03 02:12:43;;;;;;;12.20;10.43;;;;;;;;;;5032628;28;20903;-66
2022/06/03 02:15:09;;;;;;;12.47;11.37;;;;;;;;;;4991182;28;20410;-65
2022/06/03 02:17:54;;;;;;;11.60;10.60;;;;;;;;;;5030461;28;20464;-65
2022/06/03 02:20:36;;;;;;;11.13;10.13;;;;;;;;;;5030642;28;20218;-65
2022/06/03 02:23:20;;;;;;;11.13;9.97;;;;;;;;;;5032484;28;20391;-65
2022/06/03 02:25:54;;;;;;;11.03;10.00;;;;;;;;;;5031945;28;20406;-64
2022/06/03 02:28:39;;;;;;;11.00;10.10;;;;;;;;;;5031511;28;20821;-66
2022/06/03 02:31:20;;;;;;;10.90;10.00;;;;;;;;;;5032044;28;20450;-65
2022/06/03 02:33:47;;;;;;;11.33;10.43;;;;;;;;;;5032341;28;20403;-66
2022/06/03 02:36:40;;;;;;;10.23;9.33;;;;;;;;;;5029980;28;20450;-65
2022/06/03 02:39:24;;;;;;;11.40;10.37;;;;;;;;;;5044236;28;20988;-65
2022/06/03 02:42:09;;;;;;;11.17;10.17;;;;;;;;;;5051912;28;20427;-65
2022/06/03 02:44:54;;;;;;;11.40;10.30;;;;;;;;;;5051383;28;20972;-63
2022/06/03 02:47:29;;;;;;;11.60;10.57;;;;;;;;;;5031560;28;20445;-65
2022/06/03 02:49:58;;;;;;;12.20;11.00;;;;;;;;;;5032884;28;20465;-67
2022/06/03 02:52:42;;;;;;;11.20;9.90;;;;;;;;;;5051466;28;20432;-64
2022/06/03 02:55:11;;;;;;;11.27;10.27;;;;;;;;;;5051643;28;20425;-66
2022/06/03 02:57:52;;;;;;;11.97;9.70;;;;;;;;;;5051707;28;20453;-66
2022/06/03 03:00:20;;;;;;;11.07;10.13;;;;;;;;;;5050597;28;20608;-66
2022/06/03 03:03:04;;;;;;;11.07;9.93;;;;;;;;;;5051429;28;20406;-65
2022/06/03 03:05:33;;;;;;;11.17;9.93;;;;;;;;;;5050432;28;20429;-67
2022/06/03 03:07:59;;;;;;;10.90;9.93;;;;;;;;;;5050861;28;20402;-67
2022/06/03 03:10:33;;;;;;;10.47;9.47;;;;;;;;;;5050703;28;20487;-65
2022/06/03 03:13:02;;;;;;;9.43;8.63;;;;;;;;;;5051608;28;20444;-65
2022/06/03 03:15:41;;;;;;;10.47;9.47;;;;;;;;;;5050230;28;21463;-65
2022/06/03 03:18:33;;;;;;;9.87;8.97;;;;;;;;;;5050620;28;20449;-63
2022/06/03 03:21:02;;;;;;;10.60;9.70;;;;;;;;;;5047726;28;20434;-67
2022/06/03 03:23:37;;;;;;;10.70;9.70;;;;;;;;;;5051366;28;20886;-66
2022/06/03 03:26:16;;;;;;;10.67;9.77;;;;;;;;;;5051032;28;20870;-66
2022/06/03 03:29:01;;;;;;;10.80;9.70;;;;;;;;;;5049773;28;20409;-65
2022/06/03 03:31:37;;;;;;;9.50;8.70;;;;;;;;;;5050897;28;20505;-66
2022/06/03 03:34:29;;;;;;;10.13;9.23;;;;;;;;;;5050464;28;20393;-65
2022/06/03 03:37:10;;;;;;;10.93;9.83;;;;;;;;;;5034311;28;20417;-67
2022/06/03 03:39:39;;;;;;;10.10;9.10;;;;;;;;;;5050197;28;20489;-67
2022/06/03 03:42:24;;;;;;;11.80;9.17;;;;;;;;;;5050679;28;20742;-66
2022/06/03 03:45:08;;;;;;;9.80;8.90;;;;;;;;;;5050332;28;20909;-65
2022/06/03 03:47:43;;;;;;;10.73;9.77;;;;;;;;;;5050505;28;20397;-65
2022/06/03 03:50:28;;;;;;;9.70;8.70;;;;;;;;;;5049341;28;20432;-65
2022/06/03 03:53:09;;;;;;;9.07;8.23;;;;;;;;;;5051242;28;20414;-65
2022/06/03 03:56:10;;;;;;;9.53;8.73;;;;;;;;;;5050945;28;20398;-65
2022/06/03 03:58:39;;;;;;;11.00;10.00;;;;;;;;;;4968300;28;20531;-67
2022/06/03 04:01:08;;;;;;;9.13;8.23;;;;;;;;;;5035579;28;20439;-65
2022/06/03 04:04:10;;;;;;;11.73;9.93;;;;;;;;;;5050584;28;20409;-65
2022/06/03 04:06:44;;;;;;;11.20;9.67;;;;;;;;;;5008037;28;20426;-66
2022/06/03 04:09:13;;;;;;;11.07;10.07;;;;;;;;;;5043375;28;20408;-65
2022/06/03 04:12:00;;;;;;;14.43;10.20;;;;;;;;;;5050209;28;20490;-66
2022/06/03 04:14:45;;;;;;;12.93;8.93;;;;;;;;;;5049403;28;20405;-64
2022/06/03 04:17:20;;;;;;;11.77;8.67;;;;;;;;;;5166827;22;20499;-64
2022/06/03 04:19:56;;;;;;;10.53;9.43;;;;;;;;;;5028836;28;20402;-65
2022/06/03 04:22:44;;;;;;;10.90;9.60;;;;;;;;;;5029802;28;20390;-64
2022/06/03 04:25:33;;;;;;;10.73;9.50;;;;;;;;;;5029900;28;20518;-65
2022/06/03 04:28:12;;;;;;;10.20;9.20;;;;;;;;;;5016911;28;20438;-64
2022/06/03 04:30:38;;;;;;;10.13;9.00;;;;;;;;;;5029818;28;20446;-65
2022/06/03 04:33:23;;;;;;;9.03;8.30;;;;;;;;;;5012498;28;20403;-64
2022/06/03 04:35:58;;;;;;;9.00;8.30;;;;;;;;;;5029841;28;20379;-63
2022/06/03 04:38:27;;;;;;;9.77;8.63;;;;;;;;;;5011445;28;20533;-66
2022/06/03 04:40:53;;;;;;;10.93;9.07;;;;;;;;;;5014108;28;20442;-66
2022/06/03 04:43:35;;;;;;;9.40;8.23;;;;;;;;;;5039964;28;20467;-66
2022/06/03 04:46:20;;;;;;;8.90;8.20;;;;;;;;;;5031371;28;20585;-62
2022/06/03 04:49:09;;;;;;;10.73;8.27;;;;;;;;;;5024213;28;20418;-64
2022/06/03 04:51:44;;;;;;;8.60;7.80;;;;;;;;;;5001699;28;21026;-64
2022/06/03 04:54:29;;;;;;;8.57;7.13;;;;;;;;;;5029169;28;20416;-66
2022/06/03 04:57:13;;;;;;;8.70;8.00;;;;;;;;;;5029887;28;20414;-66
2022/06/03 04:59:51;;;;;;;7.53;7.00;;;;;;;;;;5028151;28;20406;-63
2022/06/03 05:02:23;;;;;;;8.97;8.03;;;;;;;;;;5019137;28;20442;-66
2022/06/03 05:05:09;;;;;;;9.30;8.23;;;;;;;;;;5015502;28;20914;-66
2022/06/03 05:07:39;;;;;;;8.97;8.30;;;;;;;;;;5028194;28;20422;-66
2022/06/03 05:10:24;;;;;;;10.73;8.20;;;;;;;;;;5032886;28;20426;-66
2022/06/03 05:13:06;;;;;;;8.67;7.93;;;;;;;;;;5032704;28;20406;-66
2022/06/03 05:15:51;;;;;;;8.30;7.70;;;;;;;;;;5029660;28;20399;-67
2022/06/03 05:18:17;;;;;;;10.03;8.67;;;;;;;;;;5030236;28;20473;-67
2022/06/03 05:21:01;;;;;;;10.00;9.07;;;;;;;;;;5029765;28;20521;-66
2022/06/03 05:23:27;;;;;;;10.13;9.30;;;;;;;;;;5033875;28;20168;-73
2022/06/03 05:26:21;;;;;;;9.30;8.50;;;;;;;;;;5034142;28;20933;-69
2022/06/03 05:28:47;;;;;;;14.67;10.70;;;;;;;;;;4993396;28;20447;-69
2022/06/03 05:31:27;;;;;;;8.87;8.07;;;;;;;;;;5029048;28;20476;-68
2022/06/03 05:33:53;;;;;;;10.40;7.83;;;;;;;;;;5015610;28;20916;-68
2022/06/03 05:36:19;;;;;;;9.00;8.20;;;;;;;;;;5008651;28;20731;-69
2022/06/03 05:38:45;;;;;;;9.93;7.80;;;;;;;;;;5028482;28;21005;-73
2022/06/03 05:44:25;;;;;;;14.80;7.60;;;;;;;;;;5021636;28;20171;-69
2022/06/03 05:46:51;;;;;;;11.93;8.13;;;;;;;;;;5027938;28;20453;-69
2022/06/03 05:49:17;;;;;;;7.60;7.00;;;;;;;;;;5008689;28;21008;-71
2022/06/03 05:51:49;;;;;;;9.70;8.80;;;;;;;;;;5028134;28;20438;-72
2022/06/03 05:54:21;;;;;;;7.70;7.07;;;;;;;;;;5031496;28;20423;-65
2022/06/03 05:57:04;;;;;;;8.70;7.80;;;;;;;;;;5028861;28;20473;-70
2022/06/03 05:59:49;;;;;;;8.57;7.87;;;;;;;;;;5026628;28;20913;-73
2022/06/03 06:02:34;;;;;;;9.17;8.37;;;;;;;;;;5013029;28;20414;-72
2022/06/03 06:05:18;;;;;;;9.17;8.37;;;;;;;;;;5028927;28;20418;-70
2022/06/03 06:07:50;;;;;;;8.73;7.93;;;;;;;;;;5029280;28;20425;-68
2022/06/03 06:10:25;;;;;;;8.00;7.17;;;;;;;;;;5028342;28;20437;-68
2022/06/03 06:12:57;;;;;;;11.97;8.00;;;;;;;;;;5030252;28;20429;-69
2022/06/03 06:15:32;;;;;;;8.70;7.80;;;;;;;;;;5030097;28;20422;-68
2022/06/03 06:18:15;;;;;;;8.17;7.37;;;;;;;;;;5028512;28;20882;-67
2022/06/03 06:20:57;;;;;;;8.70;7.90;;;;;;;;;;5027657;28;20442;-70
2022/06/03 06:23:36;;;;;;;8.87;8.17;;;;;;;;;;5029030;28;20904;-70
2022/06/03 06:26:17;;;;;;;9.53;7.13;;;;;;;;;;5029144;28;20417;-68
2022/06/03 06:28:54;;;;;;;9.43;7.90;;;;;;;;;;5024293;28;20413;-66
2022/06/03 06:31:26;;;;;;;9.17;7.23;;;;;;;;;;5029718;28;20433;-70
2022/06/03 06:34:07;;;;;;;9.77;7.63;;;;;;;;;;5028806;28;20486;-69
2022/06/03 06:36:43;;;;;;;9.57;8.67;;;;;;;;;;5028699;28;20445;-72
2022/06/03 06:39:12;;;;;;;8.80;8.10;;;;;;;;;;5022277;28;20455;-69
2022/06/03 06:41:56;;;;;;;8.70;8.10;;;;;;;;;;5028441;28;20879;-69
2022/06/03 06:44:46;;;;;;;8.77;8.07;;;;;;;;;;5028563;28;20412;-68
2022/06/03 06:47:31;;;;;;;8.70;7.90;;;;;;;;;;5026606;28;20754;-68
2022/06/03 06:50:04;;;;;;;10.87;7.97;;;;;;;;;;5009428;28;20548;-69
2022/06/03 06:52:30;;;;;;;9.00;8.30;;;;;;;;;;5028481;28;20418;-69
2022/06/03 06:54:59;;;;;;;9.27;8.57;;;;;;;;;;5030705;28;20955;-68
2022/06/03 06:57:27;;;;;;;8.43;7.83;;;;;;;;;;5030293;28;20259;-67
2022/06/03 06:59:56;;;;;;;10.10;9.00;;;;;;;;;;5030165;28;20978;-70
2022/06/03 07:02:26;;;;;;;10.40;8.40;;;;;;;;;;5018605;28;20423;-69
2022/06/03 07:05:16;;;;;;;10.43;9.60;;;;;;;;;;5014376;28;20978;-71
2022/06/03 07:07:45;;;;;;;10.00;9.00;;;;;;;;;;5016131;28;20426;-68
2022/06/03 07:10:19;;;;;;;9.97;9.10;;;;;;;;;;5029784;28;20458;-71
2022/06/03 07:12:45;;;;;;;9.00;8.10;;;;;;;;;;5030136;28;20398;-70
2022/06/03 07:15:14;;;;;;;9.77;8.90;;;;;;;;;;5029216;28;20459;-70
2022/06/03 07:20:57;;;;;;;9.50;8.80;;;;;;;;;;4965321;28;20426;-69
2022/06/03 07:23:35;;;;;;;10.50;9.70;;;;;;;;;;4967056;28;20484;-68
2022/06/03 07:26:19;;;;;;;9.43;8.73;;;;;;;;;;4997259;28;20205;-71
2022/06/03 07:28:58;;;;;;;9.40;8.70;;;;;;;;;;5019911;28;20422;-71
2022/06/03 07:31:37;;;;;;;9.93;9.13;;;;;;;;;;5029744;28;20205;-70
2022/06/03 07:34:12;;;;;;;10.23;9.53;;;;;;;;;;5028919;28;20179;-69
2022/06/03 07:36:54;;;;;;;9.73;8.93;;;;;;;;;;5029313;28;20225;-70
2022/06/03 07:39:29;;;;;;;9.48;8.75;;;;;;;;;;5023907;28;20319;-69
2022/06/03 07:42:10;;;;;;;9.30;8.43;;;;;;;;;;5028915;28;20181;-71
2022/06/03 07:44:52;;;;;;;10.80;10.00;;;;;;;;;;5029033;28;20162;-69
2022/06/03 07:47:18;;;;;;;10.13;9.43;;;;;;;;;;5027665;28;20269;-70
2022/06/03 07:49:46;;;;;;;8.80;8.07;;;;;;;;;;5028480;28;20171;-72
2022/06/03 07:52:18;;;;;;;9.32;8.48;;;;;;;;;;5028866;28;20175;-72
2022/06/03 07:54:51;;;;;;;9.52;8.73;;;;;;;;;;5029346;28;20535;-69
2022/06/03 07:57:19;;;;;;;9.30;8.60;;;;;;;;;;5029011;28;20187;-70
2022/06/03 07:59:45;;;;;;;9.55;8.70;;;;;;;;;;5028672;28;20239;-69
2022/06/03 08:02:11;;;;;;;8.45;7.75;;;;;;;;;;5029204;28;20596;-70
2022/06/03 08:04:38;;;;;;;12.50;8.77;;;;;;;;;;5028666;28;20690;-69
2022/06/03 08:13:05;;;;;;;8.63;7.93;;;;;;;;;;5032800;28;20174;-72
2022/06/03 08:15:36;;;;;;;9.00;8.20;;;;;;;;;;5036915;28;20159;-71
2022/06/03 08:18:05;;;;;;;9.40;8.70;;;;;;;;;;5013204;28;20202;-70
2022/06/03 08:20:33;;;;;;;9.90;9.10;;;;;;;;;;5028720;28;20199;-70
2022/06/03 08:23:01;;;;;;;7.85;7.25;;;;;;;;;;5028481;28;20171;-71
2022/06/03 08:25:28;;;;;;;8.43;7.82;;;;;;;;;;5028883;28;20719;-70
2022/06/03 08:27:56;;;;;;;7.80;7.28;;;;;;;;;;5011273;28;20201;-69
2022/06/03 08:30:27;;;;;;;8.60;7.72;;;;;;;;;;5028798;28;20616;-68
2022/06/03 08:32:56;;;;;;;8.55;7.75;;;;;;;;;;5011154;28;20171;-69
2022/06/03 08:35:24;;;;;;;8.25;7.15;;;;;;;;;;5010212;28;20182;-68
2022/06/03 08:37:53;;;;;;;7.20;6.60;;;;;;;;;;5028724;28;20207;-68
2022/06/03 08:40:19;;;;;;;8.45;6.57;;;;;;;;;;5023679;28;20218;-68
2022/06/03 08:42:49;;;;;;;7.78;6.70;;;;;;;;;;5020258;28;20172;-72
2022/06/03 08:45:16;;;;;;;8.52;7.75;;;;;;;;;;5026803;28;20230;-70
2022/06/03 08:47:51;;;;;;;7.43;6.82;;;;;;;;;;5028388;28;20652;-68
2022/06/03 08:50:29;;;;;;;7.65;7.05;;;;;;;;;;5022012;28;20239;-69
2022/06/03 08:52:55;;;;;;;7.60;7.00;;;;;;;;;;5028318;28;20179;-69
2022/06/03 08:55:24;;;;;;;7.65;7.15;;;;;;;;;;5028347;28;20171;-70
2022/06/03 08:57:52;;;;;;;9.13;6.53;;;;;;;;;;5027934;28;20199;-70
2022/06/03 09:00:23;;;;;;;9.20;7.55;;;;;;;;;;5027808;28;20282;-70
2022/06/03 09:03:01;;;;;;;6.78;6.25;;;;;;;;;;5027650;28;20210;-68
2022/06/03 09:05:32;;;;;;;7.05;6.45;;;;;;;;;;5028681;28;20174;-69
2022/06/03 09:08:02;;;;;;;7.10;6.40;;;;;;;;;;5028949;28;20175;-70
2022/06/03 09:10:40;;;;;;;7.03;6.30;;;;;;;;;;5028178;28;20272;-70
2022/06/03 09:13:26;;;;;;;7.75;7.00;;;;;;;;;;5027760;28;20227;-70
2022/06/03 09:15:52;;;;;;;8.30;7.50;;;;;;;;;;4979355;28;20654;-69
2022/06/03 09:18:21;;;;;;;8.48;7.72;;;;;;;;;;5028443;28;20227;-69
2022/06/03 09:20:54;;;;;;;7.83;7.13;;;;;;;;;;5028636;28;20191;-75
2022/06/03 09:23:22;;;;;;;8.10;7.40;;;;;;;;;;5029508;28;20163;-72
2022/06/03 09:25:54;;;;;;;8.30;7.60;;;;;;;;;;5029041;28;20237;-70
2022/06/03 09:28:46;;;;;;;9.77;5.93;;;;;;;;;;5033067;28;20496;-69
2022/06/03 09:31:13;;;;;;;6.38;5.88;;;;;;;;;;5023597;28;20213;-67
2022/06/03 09:33:40;;;;;;;6.07;5.63;;;;;;;;;;5032532;28;20212;-72
2022/06/03 09:36:12;;;;;;;8.13;7.35;;;;;;;;;;5031973;28;20228;-69
2022/06/03 09:38:48;;;;;;;6.55;6.05;;;;;;;;;;5031262;28;20206;-69
2022/06/03 09:41:14;;;;;;;9.00;6.20;;;;;;;;;;5008399;28;20201;-68
2022/06/03 09:43:43;;;;;;;8.23;7.53;;;;;;;;;;5013698;28;20167;-69
2022/06/03 09:46:11;;;;;;;9.00;8.20;;;;;;;;;;5031158;28;20181;-69
2022/06/03 09:48:39;;;;;;;11.23;8.37;;;;;;;;;;5031527;28;20171;-68
2022/06/03 09:51:10;;;;;;;7.28;6.55;;;;;;;;;;5030881;28;20242;-70
2022/06/03 09:53:41;;;;;;;6.90;5.97;;;;;;;;;;5029015;28;20167;-70
2022/06/03 09:56:13;;;;;;;7.22;6.63;;;;;;;;;;5029875;28;20163;-70
2022/06/03 09:58:39;;;;;;;6.97;5.63;;;;;;;;;;5030893;28;20619;-68
2022/06/03 10:01:09;;;;;;;9.82;5.60;;;;;;;;;;5031665;28;20191;-71
2022/06/03 10:03:35;;;;;;;6.38;5.88;;;;;;;;;;5030853;28;20271;-71
2022/06/03 10:06:01;;;;;;;6.80;5.80;;;;;;;;;;5030673;28;20213;-69
2022/06/03 10:12:48;;;;;;;7.05;5.22;;;;;;;;;;5013569;28;20202;-71
2022/06/03 10:14:00;;;;;;;5.65;4.78;;;;;;;;;;5031052;28;20258;-68
2022/06/03 10:16:28;;;;;;;6.20;5.70;;;;;;;;;;5031729;28;20646;-67
2022/06/03 10:18:56;;;;;;;5.50;5.00;;;;;;;;;;5024461;28;20221;-68
2022/06/03 10:21:22;;;;;;;6.47;5.88;;;;;;;;;;5030777;28;20197;-70
2022/06/03 10:23:54;;;;;;;4.88;4.50;;;;;;;;;;5030443;28;20620;-70
2022/06/03 10:26:22;;;;;;;7.80;4.45;;;;;;;;;;5031686;28;20175;-68
2022/06/03 10:28:49;;;;;;;6.00;4.45;;;;;;;;;;5030896;28;20286;-71
2022/06/03 10:31:17;;;;;;;5.05;4.55;;;;;;;;;;5031856;28;20798;-70
2022/06/03 10:33:53;;;;;;;5.05;4.55;;;;;;;;;;5031407;28;20171;-70
2022/06/03 10:36:23;;;;;;;6.65;5.20;;;;;;;;;;5006289;28;98814;-69
2022/06/03 10:38:51;;;;;;;10.50;5.20;;;;;;;;;;5003426;28;20199;-70
2022/06/03 10:41:17;;;;;;;5.60;5.10;;;;;;;;;;5011208;28;20210;-68
2022/06/03 10:43:44;;;;;;;5.55;4.60;;;;;;;;;;5011092;28;20652;-67
2022/06/03 10:46:15;;;;;;;7.28;5.20;;;;;;;;;;5005571;28;20176;-71
2022/06/03 10:48:42;;;;;;;7.93;5.38;;;;;;;;;;5010576;28;20591;-68
2022/06/03 11:02:34;;;;;;;6.10;5.60;;;;;;;;;;5012079;28;20612;-71
2022/06/03 11:05:11;;;;;;;6.20;5.57;;;;;;;;;;5009931;28;20814;-69
2022/06/03 11:07:38;;;;;;;10.23;6.20;;;;;;;;;;5013393;28;20206;-70
2022/06/03 11:10:06;;;;;;;11.73;5.03;;;;;;;;;;5014074;28;20187;-67
2022/06/03 11:12:32;;;;;;;6.20;5.37;;;;;;;;;;5011916;28;20668;-67
2022/06/03 11:14:58;;;;;;;6.40;5.80;;;;;;;;;;5011107;28;20172;-68
2022/06/03 11:17:40;;;;;;;5.05;4.65;;;;;;;;;;5010480;28;20845;-68
2022/06/03 11:20:17;;;;;;;7.80;5.53;;;;;;;;;;5004491;28;20357;-70
2022/06/03 11:22:45;;;;;;;5.90;5.20;;;;;;;;;;5010875;28;20203;-69
2022/06/03 11:25:27;;;;;;;5.73;5.20;;;;;;;;;;4993217;28;20262;-68
2022/06/03 11:27:53;;;;;;;5.43;4.90;;;;;;;;;;5010142;28;20179;-67
2022/06/03 11:30:28;;;;;;;6.43;5.00;;;;;;;;;;5009764;28;20198;-69
2022/06/03 11:32:57;;;;;;;5.70;5.20;;;;;;;;;;5011431;28;20179;-70
2022/06/03 11:35:33;;;;;;;6.07;5.47;;;;;;;;;;4992455;28;20167;-70
2022/06/03 11:38:03;;;;;;;6.60;5.90;;;;;;;;;;5011086;28;20207;-69
2022/06/03 11:40:32;;;;;;;6.57;5.70;;;;;;;;;;5014113;28;20202;-72
2022/06/03 11:43:08;;;;;;;6.20;5.07;;;;;;;;;;5012834;28;20176;-71
2022/06/03 11:45:57;;;;;;;8.13;4.80;;;;;;;;;;5009330;28;20171;-70
2022/06/03 11:48:29;;;;;;;5.87;5.27;;;;;;;;;;4993895;28;20192;-70
2022/06/03 11:50:57;;;;;;;5.93;5.13;;;;;;;;;;4989664;28;20191;-69
2022/06/03 11:53:25;;;;;;;6.60;5.80;;;;;;;;;;5010445;28;20207;-70
2022/06/03 11:55:54;;;;;;;7.10;5.40;;;;;;;;;;5009588;28;20176;-70
2022/06/03 11:58:23;;;;;;;5.77;4.77;;;;;;;;;;5009684;28;20807;-70
2022/06/03 12:01:02;;;;;;;5.33;4.60;;;;;;;;;;5009576;28;20196;-68
2022/06/03 12:03:31;;;;;;;5.70;4.40;;;;;;;;;;5007866;28;20649;-71
2022/06/03 12:06:03;;;;;;;4.93;4.50;;;;;;;;;;5008839;28;20433;-71
2022/06/03 12:08:29;;;;;;;4.70;3.53;;;;;;;;;;5009076;28;20810;-70
2022/06/03 12:11:09;;;;;;;6.90;4.10;;;;;;;;;;4992338;28;20431;-69
2022/06/03 12:13:35;;;;;;;5.90;4.07;;;;;;;;;;5009443;28;20402;-69
2022/06/03 12:16:04;;;;;;;6.30;4.40;;;;;;;;;;5009679;28;20415;-69
2022/06/03 12:18:34;;;;;;;5.00;4.60;;;;;;;;;;5007593;28;20458;-70
2022/06/03 12:21:00;;;;;;;4.60;4.20;;;;;;;;;;5008991;28;20442;-69
2022/06/03 12:23:26;;;;;;;4.40;4.00;;;;;;;;;;5009646;28;20947;-68
2022/06/03 12:25:52;;;;;;;4.03;3.60;;;;;;;;;;5009702;28;20168;-69
2022/06/03 12:28:24;;;;;;;4.00;3.40;;;;;;;;;;5009321;28;20406;-69
2022/06/03 12:30:52;;;;;;;3.60;3.30;;;;;;;;;;5029622;23;20302;-69
2022/06/03 12:33:23;;;;;;;5.33;3.97;;;;;;;;;;5027247;28;20408;-70
2022/06/03 12:35:49;;;;;;;5.33;4.27;;;;;;;;;;5027871;28;20409;-69
2022/06/03 12:38:23;;;;;;;4.97;4.57;;;;;;;;;;5028642;28;20458;-69
2022/06/03 12:40:51;;;;;;;5.80;5.33;;;;;;;;;;5019984;28;20410;-69
2022/06/03 12:43:30;;;;;;;5.97;5.37;;;;;;;;;;5009527;28;20446;-69
2022/06/03 12:46:08;;;;;;;6.80;5.60;;;;;;;;;;5008986;28;20438;-67
2022/06/03 12:48:36;;;;;;;6.03;5.50;;;;;;;;;;5008576;28;20697;-69
2022/06/03 12:51:20;;;;;;;5.30;4.90;;;;;;;;;;5008229;28;20427;-69
2022/06/03 12:53:48;;;;;;;6.13;4.93;;;;;;;;;;5009188;28;21137;-69
2022/06/03 12:56:33;;;;;;;7.50;5.07;;;;;;;;;;5008961;28;20502;-69
2022/06/03 12:59:08;;;;;;;6.07;5.67;;;;;;;;;;5008138;28;20438;-69
2022/06/03 13:01:46;;;;;;;6.80;6.20;;;;;;;;;;5026627;28;20520;-69
2022/06/03 13:04:25;;;;;;;7.27;6.57;;;;;;;;;;5028636;28;20414;-70
2022/06/03 13:07:09;;;;;;;5.90;5.40;;;;;;;;;;5028002;28;20484;-70
2022/06/03 13:09:52;;;;;;;5.67;5.27;;;;;;;;;;5028594;28;20402;-70
2022/06/03 13:12:21;;;;;;;7.17;5.67;;;;;;;;;;5028726;28;20402;-69
2022/06/03 13:14:47;;;;;;;11.90;5.50;;;;;;;;;;5026936;28;20398;-69
2022/06/03 13:17:32;;;;;;;6.60;5.90;;;;;;;;;;5014571;28;20418;-69
2022/06/03 13:20:00;;;;;;;6.80;5.73;;;;;;;;;;5008445;28;20966;-69
2022/06/03 13:22:29;;;;;;;9.40;6.00;;;;;;;;;;5008789;28;20410;-69
2022/06/03 13:25:23;;;;;;;6.00;5.57;;;;;;;;;;5009094;28;20983;-69
2022/06/03 13:28:14;;;;;;;8.53;6.57;;;;;;;;;;5008942;28;20403;-70
2022/06/03 13:30:41;;;;;;;6.30;5.47;;;;;;;;;;5008950;28;20855;-69
2022/06/03 13:33:20;;;;;;;7.30;5.90;;;;;;;;;;5009553;28;20414;-69
2022/06/03 13:36:07;;;;;;;6.90;5.93;;;;;;;;;;5007878;28;20524;-70
2022/06/03 13:38:46;;;;;;;7.97;7.27;;;;;;;;;;5008520;28;21025;-69
2022/06/03 13:44:18;;;;;;;7.30;6.60;;;;;;;;;;5006706;28;20516;-69
2022/06/03 13:46:49;;;;;;;6.47;5.80;;;;;;;;;;5009357;28;20403;-69
2022/06/03 13:49:24;;;;;;;8.33;7.60;;;;;;;;;;5007686;28;20405;-70
2022/06/03 13:51:53;;;;;;;6.87;6.03;;;;;;;;;;5008208;28;20497;-68
2022/06/03 13:54:19;;;;;;;7.50;6.90;;;;;;;;;;5008531;28;20498;-68
2022/06/03 13:56:53;;;;;;;7.23;6.67;;;;;;;;;;5008411;28;20514;-69
2022/06/03 13:59:19;;;;;;;7.93;7.13;;;;;;;;;;5008265;28;20685;-69
2022/06/03 14:01:49;;;;;;;10.27;6.90;;;;;;;;;;5008360;28;20430;-71
2022/06/03 14:04:24;;;;;;;9.90;7.63;;;;;;;;;;5007447;28;20934;-69
2022/06/03 14:07:01;;;;;;;9.17;6.50;;;;;;;;;;5008036;28;20411;-68
2022/06/03 14:09:45;;;;;;;9.83;7.00;;;;;;;;;;5002016;28;20422;-67
2022/06/03 14:12:29;;;;;;;7.73;7.03;;;;;;;;;;5008128;28;20406;-67
2022/06/03 14:15:05;;;;;;;8.40;6.10;;;;;;;;;;5011272;28;20777;-69
2022/06/03 14:17:33;;;;;;;6.80;6.30;;;;;;;;;;5003376;28;20445;-69
2022/06/03 14:19:59;;;;;;;9.67;7.23;;;;;;;;;;5010080;28;20705;-69
2022/06/03 14:22:31;;;;;;;7.33;6.63;;;;;;;;;;5011968;28;20414;-68
2022/06/03 14:25:03;;;;;;;6.47;5.87;;;;;;;;;;5011477;28;20403;-68
2022/06/03 14:27:29;;;;;;;8.27;7.47;;;;;;;;;;5005875;28;20411;-70
2022/06/03 14:30:00;;;;;;;11.70;7.30;;;;;;;;;;5011134;28;20425;-72
2022/06/03 14:32:27;;;;;;;12.60;7.80;;;;;;;;;;5007397;28;20415;-71
2022/06/03 14:35:11;;;;;;;7.27;6.60;;;;;;;;;;5007362;28;20415;-71
2022/06/03 14:37:38;;;;;;;8.30;7.27;;;;;;;;;;5007718;28;20443;-72
2022/06/03 14:40:09;;;;;;;10.63;6.93;;;;;;;;;;5004215;28;20442;-71
2022/06/03 14:42:37;;;;;;;10.27;7.37;;;;;;;;;;5003583;28;20514;-72
2022/06/03 14:45:06;;;;;;;7.07;6.47;;;;;;;;;;5003844;28;20434;-72
2022/06/03 14:47:37;;;;;;;9.23;5.73;;;;;;;;;;5004485;28;20505;-70
2022/06/03 14:50:16;;;;;;;10.63;6.47;;;;;;;;;;5003136;28;20499;-72
2022/06/03 14:52:46;;;;;;;8.77;6.30;;;;;;;;;;5006134;28;20415;-70
2022/06/03 14:55:14;;;;;;;11.70;6.60;;;;;;;;;;5004913;28;20423;-71
2022/06/03 14:57:45;;;;;;;10.33;7.23;;;;;;;;;;5003311;28;21016;-71
2022/06/03 15:00:11;;;;;;;9.93;6.37;;;;;;;;;;5003188;28;20438;-71
2022/06/03 15:02:37;;;;;;;8.13;6.30;;;;;;;;;;5004058;28;20410;-72
2022/06/03 15:05:09;;;;;;;5.67;5.10;;;;;;;;;;5000321;28;20422;-71
2022/06/03 15:07:36;;;;;;;5.50;5.00;;;;;;;;;;4999447;28;20424;-72
2022/06/03 15:10:05;;;;;;;6.50;5.90;;;;;;;;;;5002597;28;20492;-72
2022/06/03 15:12:32;;;;;;;5.73;5.10;;;;;;;;;;5006699;28;20423;-71
2022/06/03 15:14:59;;;;;;;6.37;5.77;;;;;;;;;;5000387;28;20550;-70
2022/06/03 15:17:35;;;;;;;12.53;5.80;;;;;;;;;;5006228;28;20568;-69
2022/06/03 15:20:04;;;;;;;5.60;5.10;;;;;;;;;;5000297;28;20494;-72
2022/06/03 15:22:41;;;;;;;7.93;5.10;;;;;;;;;;5002188;28;20554;-72
2022/06/03 15:25:16;;;;;;;6.77;5.97;;;;;;;;;;5000618;28;20718;-71
2022/06/03 15:27:51;;;;;;;10.10;6.73;;;;;;;;;;5001682;28;20581;-71
2022/06/03 15:30:28;;;;;;;8.20;7.50;;;;;;;;;;5001485;28;20443;-71
2022/06/03 15:32:55;;;;;;;11.10;10.00;;;;;;;;;;5000386;28;20455;-71
2022/06/03 15:35:23;;;;;;;7.60;6.90;;;;;;;;;;5002651;28;20930;-71
2022/06/03 15:37:49;;;;;;;7.57;6.97;;;;;;;;;;5029913;28;20454;-71
2022/06/03 15:40:27;;;;;;;10.53;7.33;;;;;;;;;;4999121;28;20597;-71
2022/06/03 15:42:54;;;;;;;7.63;7.00;;;;;;;;;;5000805;28;20421;-72
2022/06/03 15:45:35;;;;;;;8.90;8.10;;;;;;;;;;5003503;28;20783;-71
2022/06/03 15:48:05;;;;;;;8.67;7.70;;;;;;;;;;5000318;28;20447;-72